Terminal Aerodrome Forecast
Issued by NWS

Home | Current Version | Previous Version | Text Only | Print | Product List | Glossary On
Versions: 1 2 3 4 5 6 7 8 9 10 11 12 13 14 15 16 17 18 19 20 21 22 23 24
674
FTUS46 KSGX 210520
TAFSAN
TAF
KSAN 210520Z 2106/2212 VRB03KT P6SM SKC
     FM212000 26010KT P6SM VCSH BKN035
     FM220200 28005KT P6SM SCT035 BKN050=

USA.gov is the U.S. government's official web portal to all federal, state and local government web resources and services.